sensor_id;sensor_type;location;lat;lon;timestamp;P1;durP1;ratioP1;P2;durP2;ratioP2
6033;SDS011;3045;43.226;27.858;2022-10-16T00:00:40;12.20;;;10.90;;
6033;SDS011;3045;43.226;27.858;2022-10-16T00:03:08;11.00;;;10.30;;
6033;SDS011;3045;43.226;27.858;2022-10-16T00:05:40;11.80;;;10.93;;
6033;SDS011;3045;43.226;27.858;2022-10-16T00:08:07;10.27;;;9.53;;
6033;SDS011;3045;43.226;27.858;2022-10-16T00:10:35;10.90;;;10.20;;
6033;SDS011;3045;43.226;27.858;2022-10-16T00:13:04;10.33;;;9.40;;
6033;SDS011;3045;43.226;27.858;2022-10-16T00:15:32;10.80;;;10.00;;
6033;SDS011;3045;43.226;27.858;2022-10-16T00:18:01;9.53;;;8.93;;
6033;SDS011;3045;43.226;27.858;2022-10-16T00:20:28;9.67;;;9.03;;
6033;SDS011;3045;43.226;27.858;2022-10-16T00:22:56;10.30;;;9.40;;
6033;SDS011;3045;43.226;27.858;2022-10-16T00:25:23;9.47;;;8.93;;
6033;SDS011;3045;43.226;27.858;2022-10-16T00:27:50;9.37;;;8.63;;
6033;SDS011;3045;43.226;27.858;2022-10-16T00:30:18;12.50;;;8.40;;
6033;SDS011;3045;43.226;27.858;2022-10-16T00:32:45;9.13;;;8.43;;
6033;SDS011;3045;43.226;27.858;2022-10-16T00:35:12;9.20;;;8.60;;
6033;SDS011;3045;43.226;27.858;2022-10-16T00:37:39;9.17;;;8.57;;
6033;SDS011;3045;43.226;27.858;2022-10-16T00:40:06;8.67;;;8.17;;
6033;SDS011;3045;43.226;27.858;2022-10-16T00:42:34;8.10;;;7.77;;
6033;SDS011;3045;43.226;27.858;2022-10-16T00:45:01;8.30;;;7.73;;
6033;SDS011;3045;43.226;27.858;2022-10-16T00:47:31;7.70;;;7.10;;
6033;SDS011;3045;43.226;27.858;2022-10-16T00:50:02;8.37;;;7.93;;
6033;SDS011;3045;43.226;27.858;2022-10-16T00:52:33;8.00;;;7.60;;
6033;SDS011;3045;43.226;27.858;2022-10-16T00:55:01;8.13;;;7.37;;
6033;SDS011;3045;43.226;27.858;2022-10-16T00:57:29;7.53;;;7.03;;
6033;SDS011;3045;43.226;27.858;2022-10-16T00:59:56;7.37;;;6.90;;
6033;SDS011;3045;43.226;27.858;2022-10-16T01:02:24;6.77;;;6.47;;
6033;SDS011;3045;43.226;27.858;2022-10-16T01:04:52;8.37;;;6.93;;
6033;SDS011;3045;43.226;27.858;2022-10-16T01:07:25;7.60;;;7.10;;
6033;SDS011;3045;43.226;27.858;2022-10-16T01:10:06;6.87;;;6.57;;
6033;SDS011;3045;43.226;27.858;2022-10-16T01:12:38;7.43;;;6.70;;
6033;SDS011;3045;43.226;27.858;2022-10-16T01:15:13;7.30;;;6.80;;
6033;SDS011;3045;43.226;27.858;2022-10-16T01:17:45;6.43;;;6.13;;
6033;SDS011;3045;43.226;27.858;2022-10-16T01:20:20;6.97;;;6.37;;
6033;SDS011;3045;43.226;27.858;2022-10-16T01:23:02;6.70;;;6.40;;
6033;SDS011;3045;43.226;27.858;2022-10-16T01:25:39;7.53;;;6.93;;
6033;SDS011;3045;43.226;27.858;2022-10-16T01:28:21;7.10;;;6.40;;
6033;SDS011;3045;43.226;27.858;2022-10-16T01:30:55;7.23;;;6.70;;
6033;SDS011;3045;43.226;27.858;2022-10-16T01:33:26;6.60;;;6.20;;
6033;SDS011;3045;43.226;27.858;2022-10-16T01:36:03;7.27;;;6.63;;
6033;SDS011;3045;43.226;27.858;2022-10-16T01:38:37;6.43;;;5.93;;
6033;SDS011;3045;43.226;27.858;2022-10-16T01:41:06;8.47;;;6.23;;
6033;SDS011;3045;43.226;27.858;2022-10-16T01:43:38;7.30;;;6.67;;
6033;SDS011;3045;43.226;27.858;2022-10-16T01:46:09;6.43;;;6.13;;
6033;SDS011;3045;43.226;27.858;2022-10-16T01:48:37;6.13;;;5.73;;
6033;SDS011;3045;43.226;27.858;2022-10-16T01:51:06;14.40;;;7.10;;
6033;SDS011;3045;43.226;27.858;2022-10-16T01:53:34;5.90;;;5.40;;
6033;SDS011;3045;43.226;27.858;2022-10-16T01:56:02;6.80;;;6.20;;
6033;SDS011;3045;43.226;27.858;2022-10-16T01:58:34;5.90;;;5.60;;
6033;SDS011;3045;43.226;27.858;2022-10-16T02:01:05;7.40;;;6.07;;
6033;SDS011;3045;43.226;27.858;2022-10-16T02:03:37;6.10;;;5.60;;
6033;SDS011;3045;43.226;27.858;2022-10-16T02:06:09;5.97;;;5.67;;
6033;SDS011;3045;43.226;27.858;2022-10-16T02:08:36;5.90;;;5.53;;
6033;SDS011;3045;43.226;27.858;2022-10-16T02:11:04;5.60;;;5.30;;
6033;SDS011;3045;43.226;27.858;2022-10-16T02:13:32;5.70;;;5.20;;
6033;SDS011;3045;43.226;27.858;2022-10-16T02:16:03;6.17;;;4.73;;
6033;SDS011;3045;43.226;27.858;2022-10-16T02:18:32;4.67;;;4.33;;
6033;SDS011;3045;43.226;27.858;2022-10-16T02:21:00;5.30;;;4.90;;
6033;SDS011;3045;43.226;27.858;2022-10-16T02:23:35;4.43;;;4.17;;
6033;SDS011;3045;43.226;27.858;2022-10-16T02:26:11;5.97;;;4.70;;
6033;SDS011;3045;43.226;27.858;2022-10-16T02:28:42;4.80;;;4.40;;
6033;SDS011;3045;43.226;27.858;2022-10-16T02:31:11;5.20;;;4.87;;
6033;SDS011;3045;43.226;27.858;2022-10-16T02:33:44;4.67;;;4.47;;
6033;SDS011;3045;43.226;27.858;2022-10-16T02:36:12;5.20;;;4.83;;
6033;SDS011;3045;43.226;27.858;2022-10-16T02:38:39;5.40;;;5.00;;
6033;SDS011;3045;43.226;27.858;2022-10-16T02:41:07;4.90;;;4.60;;
6033;SDS011;3045;43.226;27.858;2022-10-16T02:43:35;5.00;;;4.60;;
6033;SDS011;3045;43.226;27.858;2022-10-16T02:46:02;6.73;;;5.37;;
6033;SDS011;3045;43.226;27.858;2022-10-16T02:48:28;4.60;;;4.33;;
6033;SDS011;3045;43.226;27.858;2022-10-16T02:50:57;4.57;;;4.37;;
6033;SDS011;3045;43.226;27.858;2022-10-16T02:53:24;5.07;;;4.60;;
6033;SDS011;3045;43.226;27.858;2022-10-16T02:55:50;4.97;;;4.73;;
6033;SDS011;3045;43.226;27.858;2022-10-16T02:58:17;5.13;;;4.63;;
6033;SDS011;3045;43.226;27.858;2022-10-16T03:00:44;4.80;;;4.60;;
6033;SDS011;3045;43.226;27.858;2022-10-16T03:03:11;7.60;;;4.60;;
6033;SDS011;3045;43.226;27.858;2022-10-16T03:05:38;4.80;;;4.40;;
6033;SDS011;3045;43.226;27.858;2022-10-16T03:08:07;5.63;;;4.90;;
6033;SDS011;3045;43.226;27.858;2022-10-16T03:10:33;4.73;;;4.43;;
6033;SDS011;3045;43.226;27.858;2022-10-16T03:13:00;5.33;;;4.50;;
6033;SDS011;3045;43.226;27.858;2022-10-16T03:15:27;4.50;;;4.30;;
6033;SDS011;3045;43.226;27.858;2022-10-16T03:17:54;6.03;;;5.00;;
6033;SDS011;3045;43.226;27.858;2022-10-16T03:20:23;4.30;;;4.10;;
6033;SDS011;3045;43.226;27.858;2022-10-16T03:22:50;4.27;;;3.97;;
6033;SDS011;3045;43.226;27.858;2022-10-16T03:25:19;5.93;;;4.80;;
6033;SDS011;3045;43.226;27.858;2022-10-16T03:27:46;4.37;;;4.10;;
6033;SDS011;3045;43.226;27.858;2022-10-16T03:30:12;4.60;;;4.10;;
6033;SDS011;3045;43.226;27.858;2022-10-16T03:32:39;4.13;;;3.93;;
6033;SDS011;3045;43.226;27.858;2022-10-16T03:35:06;4.90;;;4.50;;
6033;SDS011;3045;43.226;27.858;2022-10-16T03:37:34;4.20;;;4.00;;
6033;SDS011;3045;43.226;27.858;2022-10-16T03:40:01;6.30;;;4.30;;
6033;SDS011;3045;43.226;27.858;2022-10-16T03:42:30;4.70;;;4.50;;
6033;SDS011;3045;43.226;27.858;2022-10-16T03:44:56;4.90;;;4.60;;
6033;SDS011;3045;43.226;27.858;2022-10-16T03:47:23;4.97;;;4.73;;
6033;SDS011;3045;43.226;27.858;2022-10-16T03:49:50;5.40;;;5.00;;
6033;SDS011;3045;43.226;27.858;2022-10-16T03:52:17;4.93;;;4.63;;
6033;SDS011;3045;43.226;27.858;2022-10-16T03:54:44;5.57;;;5.13;;
6033;SDS011;3045;43.226;27.858;2022-10-16T03:57:11;5.33;;;4.93;;
6033;SDS011;3045;43.226;27.858;2022-10-16T03:59:39;5.33;;;4.90;;
6033;SDS011;3045;43.226;27.858;2022-10-16T04:02:06;5.73;;;5.33;;
6033;SDS011;3045;43.226;27.858;2022-10-16T04:04:33;5.80;;;5.27;;
6033;SDS011;3045;43.226;27.858;2022-10-16T04:07:00;5.37;;;4.97;;
6033;SDS011;3045;43.226;27.858;2022-10-16T04:09:27;5.43;;;4.93;;
6033;SDS011;3045;43.226;27.858;2022-10-16T04:11:54;4.60;;;4.30;;
6033;SDS011;3045;43.226;27.858;2022-10-16T04:14:21;8.10;;;4.90;;
6033;SDS011;3045;43.226;27.858;2022-10-16T04:16:49;5.20;;;4.70;;
6033;SDS011;3045;43.226;27.858;2022-10-16T04:19:16;5.07;;;4.77;;
6033;SDS011;3045;43.226;27.858;2022-10-16T04:21:43;5.23;;;4.73;;
6033;SDS011;3045;43.226;27.858;2022-10-16T04:24:10;8.43;;;4.83;;
6033;SDS011;3045;43.226;27.858;2022-10-16T04:26:37;6.07;;;5.67;;
6033;SDS011;3045;43.226;27.858;2022-10-16T04:29:06;5.33;;;5.10;;
6033;SDS011;3045;43.226;27.858;2022-10-16T04:31:32;5.20;;;5.00;;
6033;SDS011;3045;43.226;27.858;2022-10-16T04:34:01;5.90;;;5.33;;
6033;SDS011;3045;43.226;27.858;2022-10-16T04:36:28;5.33;;;5.03;;
6033;SDS011;3045;43.226;27.858;2022-10-16T04:38:55;5.27;;;4.87;;
6033;SDS011;3045;43.226;27.858;2022-10-16T04:41:22;5.83;;;5.13;;
6033;SDS011;3045;43.226;27.858;2022-10-16T04:43:48;6.40;;;6.10;;
6033;SDS011;3045;43.226;27.858;2022-10-16T04:46:15;6.53;;;6.17;;
6033;SDS011;3045;43.226;27.858;2022-10-16T04:48:42;7.47;;;6.63;;
6033;SDS011;3045;43.226;27.858;2022-10-16T04:51:10;7.70;;;6.63;;
6033;SDS011;3045;43.226;27.858;2022-10-16T04:53:37;7.13;;;6.63;;
6033;SDS011;3045;43.226;27.858;2022-10-16T04:56:04;7.53;;;6.43;;
6033;SDS011;3045;43.226;27.858;2022-10-16T04:58:31;7.03;;;6.37;;
6033;SDS011;3045;43.226;27.858;2022-10-16T05:00:58;6.57;;;6.03;;
6033;SDS011;3045;43.226;27.858;2022-10-16T05:03:25;6.23;;;5.83;;
6033;SDS011;3045;43.226;27.858;2022-10-16T05:05:52;6.07;;;5.73;;
6033;SDS011;3045;43.226;27.858;2022-10-16T05:08:21;5.93;;;5.63;;
6033;SDS011;3045;43.226;27.858;2022-10-16T05:10:47;6.50;;;6.00;;
6033;SDS011;3045;43.226;27.858;2022-10-16T05:13:14;9.13;;;5.57;;
6033;SDS011;3045;43.226;27.858;2022-10-16T05:15:41;5.97;;;5.63;;
6033;SDS011;3045;43.226;27.858;2022-10-16T05:18:08;6.60;;;6.20;;
6033;SDS011;3045;43.226;27.858;2022-10-16T05:20:35;6.53;;;6.23;;
6033;SDS011;3045;43.226;27.858;2022-10-16T05:23:02;6.13;;;5.63;;
6033;SDS011;3045;43.226;27.858;2022-10-16T05:25:30;6.37;;;5.77;;
6033;SDS011;3045;43.226;27.858;2022-10-16T05:27:57;6.13;;;5.90;;
6033;SDS011;3045;43.226;27.858;2022-10-16T05:30:24;6.80;;;5.97;;
6033;SDS011;3045;43.226;27.858;2022-10-16T05:32:51;6.57;;;5.90;;
6033;SDS011;3045;43.226;27.858;2022-10-16T05:35:18;6.90;;;6.30;;
6033;SDS011;3045;43.226;27.858;2022-10-16T05:37:45;5.83;;;5.57;;
6033;SDS011;3045;43.226;27.858;2022-10-16T05:40:15;6.57;;;6.07;;
6033;SDS011;3045;43.226;27.858;2022-10-16T05:42:43;6.43;;;6.03;;
6033;SDS011;3045;43.226;27.858;2022-10-16T05:45:10;6.67;;;6.00;;
6033;SDS011;3045;43.226;27.858;2022-10-16T05:47:38;6.40;;;6.00;;
6033;SDS011;3045;43.226;27.858;2022-10-16T05:50:05;6.07;;;5.57;;
6033;SDS011;3045;43.226;27.858;2022-10-16T05:52:32;6.50;;;6.20;;
6033;SDS011;3045;43.226;27.858;2022-10-16T05:54:59;7.53;;;6.07;;
6033;SDS011;3045;43.226;27.858;2022-10-16T05:57:26;6.87;;;5.97;;
6033;SDS011;3045;43.226;27.858;2022-10-16T05:59:54;7.30;;;5.43;;
6033;SDS011;3045;43.226;27.858;2022-10-16T06:02:21;10.00;;;6.07;;
6033;SDS011;3045;43.226;27.858;2022-10-16T06:04:48;6.67;;;6.23;;
6033;SDS011;3045;43.226;27.858;2022-10-16T06:07:15;6.37;;;5.87;;
6033;SDS011;3045;43.226;27.858;2022-10-16T06:09:42;5.80;;;5.50;;
6033;SDS011;3045;43.226;27.858;2022-10-16T06:12:09;6.00;;;5.70;;
6033;SDS011;3045;43.226;27.858;2022-10-16T06:14:35;6.23;;;5.73;;
6033;SDS011;3045;43.226;27.858;2022-10-16T06:17:04;6.13;;;5.63;;
6033;SDS011;3045;43.226;27.858;2022-10-16T06:19:31;8.20;;;6.20;;
6033;SDS011;3045;43.226;27.858;2022-10-16T06:21:57;6.13;;;5.87;;
6033;SDS011;3045;43.226;27.858;2022-10-16T06:24:25;5.97;;;5.57;;
6033;SDS011;3045;43.226;27.858;2022-10-16T06:26:52;6.07;;;4.87;;
6033;SDS011;3045;43.226;27.858;2022-10-16T06:29:19;5.37;;;4.97;;
6033;SDS011;3045;43.226;27.858;2022-10-16T06:31:46;5.80;;;5.40;;
6033;SDS011;3045;43.226;27.858;2022-10-16T06:34:14;5.33;;;5.03;;
6033;SDS011;3045;43.226;27.858;2022-10-16T06:36:41;4.97;;;4.67;;
6033;SDS011;3045;43.226;27.858;2022-10-16T06:39:09;3.73;;;3.63;;
6033;SDS011;3045;43.226;27.858;2022-10-16T06:41:36;3.20;;;3.00;;
6033;SDS011;3045;43.226;27.858;2022-10-16T06:44:04;2.70;;;2.37;;
6033;SDS011;3045;43.226;27.858;2022-10-16T06:46:34;2.47;;;2.27;;
6033;SDS011;3045;43.226;27.858;2022-10-16T06:49:01;4.00;;;2.57;;
6033;SDS011;3045;43.226;27.858;2022-10-16T06:51:29;4.37;;;2.47;;
6033;SDS011;3045;43.226;27.858;2022-10-16T06:53:59;2.30;;;2.10;;
6033;SDS011;3045;43.226;27.858;2022-10-16T06:56:26;4.67;;;2.30;;
6033;SDS011;3045;43.226;27.858;2022-10-16T06:58:54;4.73;;;2.30;;
6033;SDS011;3045;43.226;27.858;2022-10-16T07:01:23;5.30;;;2.13;;
6033;SDS011;3045;43.226;27.858;2022-10-16T07:03:51;3.27;;;2.30;;
6033;SDS011;3045;43.226;27.858;2022-10-16T07:06:19;5.50;;;2.30;;
6033;SDS011;3045;43.226;27.858;2022-10-16T07:08:49;4.47;;;1.73;;
6033;SDS011;3045;43.226;27.858;2022-10-16T07:11:16;2.60;;;2.40;;
6033;SDS011;3045;43.226;27.858;2022-10-16T07:13:45;4.60;;;2.13;;
6033;SDS011;3045;43.226;27.858;2022-10-16T07:16:13;2.30;;;2.00;;
6033;SDS011;3045;43.226;27.858;2022-10-16T07:18:42;2.20;;;2.10;;
6033;SDS011;3045;43.226;27.858;2022-10-16T07:21:11;2.70;;;1.87;;
6033;SDS011;3045;43.226;27.858;2022-10-16T07:23:39;2.50;;;2.27;;
6033;SDS011;3045;43.226;27.858;2022-10-16T07:26:08;3.95;;;1.90;;
6033;SDS011;3045;43.226;27.858;2022-10-16T07:28:36;3.40;;;2.15;;
6033;SDS011;3045;43.226;27.858;2022-10-16T07:31:04;2.17;;;2.03;;
6033;SDS011;3045;43.226;27.858;2022-10-16T07:33:34;2.40;;;1.60;;
6033;SDS011;3045;43.226;27.858;2022-10-16T07:36:01;4.70;;;1.98;;
6033;SDS011;3045;43.226;27.858;2022-10-16T07:38:28;1.95;;;1.80;;
6033;SDS011;3045;43.226;27.858;2022-10-16T07:40:56;2.00;;;1.80;;
6033;SDS011;3045;43.226;27.858;2022-10-16T07:43:25;4.95;;;1.75;;
6033;SDS011;3045;43.226;27.858;2022-10-16T07:45:53;6.88;;;2.15;;
6033;SDS011;3045;43.226;27.858;2022-10-16T07:48:20;2.65;;;2.03;;
6033;SDS011;3045;43.226;27.858;2022-10-16T07:50:48;4.55;;;1.98;;
6033;SDS011;3045;43.226;27.858;2022-10-16T07:53:15;2.17;;;1.70;;
6033;SDS011;3045;43.226;27.858;2022-10-16T07:55:42;3.22;;;2.20;;
6033;SDS011;3045;43.226;27.858;2022-10-16T07:58:09;2.08;;;1.98;;
6033;SDS011;3045;43.226;27.858;2022-10-16T08:00:37;2.20;;;2.00;;
6033;SDS011;3045;43.226;27.858;2022-10-16T08:03:04;2.00;;;1.90;;
6033;SDS011;3045;43.226;27.858;2022-10-16T08:05:32;1.80;;;1.70;;
6033;SDS011;3045;43.226;27.858;2022-10-16T08:08:00;4.80;;;2.00;;
6033;SDS011;3045;43.226;27.858;2022-10-16T08:10:27;3.20;;;1.80;;
6033;SDS011;3045;43.226;27.858;2022-10-16T08:12:56;2.28;;;1.73;;
6033;SDS011;3045;43.226;27.858;2022-10-16T08:15:23;1.95;;;1.77;;
6033;SDS011;3045;43.226;27.858;2022-10-16T08:17:56;2.20;;;2.10;;
6033;SDS011;3045;43.226;27.858;2022-10-16T08:20:24;2.10;;;1.90;;
6033;SDS011;3045;43.226;27.858;2022-10-16T08:22:51;1.88;;;1.77;;
6033;SDS011;3045;43.226;27.858;2022-10-16T08:25:18;2.22;;;1.65;;
6033;SDS011;3045;43.226;27.858;2022-10-16T08:27:45;2.47;;;2.13;;
6033;SDS011;3045;43.226;27.858;2022-10-16T08:30:12;1.75;;;1.65;;
6033;SDS011;3045;43.226;27.858;2022-10-16T08:32:40;2.75;;;1.67;;
6033;SDS011;3045;43.226;27.858;2022-10-16T08:35:12;1.63;;;1.52;;
6033;SDS011;3045;43.226;27.858;2022-10-16T08:37:40;2.00;;;1.90;;
6033;SDS011;3045;43.226;27.858;2022-10-16T08:40:12;4.05;;;1.60;;
6033;SDS011;3045;43.226;27.858;2022-10-16T08:42:47;1.63;;;1.52;;
6033;SDS011;3045;43.226;27.858;2022-10-16T08:45:26;4.85;;;2.05;;
6033;SDS011;3045;43.226;27.858;2022-10-16T08:48:13;1.80;;;1.70;;
6033;SDS011;3045;43.226;27.858;2022-10-16T08:50:47;1.98;;;1.88;;
6033;SDS011;3045;43.226;27.858;2022-10-16T08:53:17;1.88;;;1.77;;
6033;SDS011;3045;43.226;27.858;2022-10-16T08:55:49;3.72;;;2.25;;
6033;SDS011;3045;43.226;27.858;2022-10-16T08:58:18;8.68;;;1.80;;
6033;SDS011;3045;43.226;27.858;2022-10-16T09:00:47;1.67;;;1.55;;
6033;SDS011;3045;43.226;27.858;2022-10-16T09:03:24;1.90;;;1.50;;
6033;SDS011;3045;43.226;27.858;2022-10-16T09:06:09;3.38;;;1.65;;
6033;SDS011;3045;43.226;27.858;2022-10-16T09:08:51;2.67;;;1.80;;
6033;SDS011;3045;43.226;27.858;2022-10-16T09:11:32;1.80;;;1.70;;
6033;SDS011;3045;43.226;27.858;2022-10-16T09:14:15;3.40;;;1.77;;
6033;SDS011;3045;43.226;27.858;2022-10-16T09:17:03;2.03;;;1.60;;
6033;SDS011;3045;43.226;27.858;2022-10-16T09:19:44;1.95;;;1.85;;
6033;SDS011;3045;43.226;27.858;2022-10-16T09:22:17;2.25;;;2.00;;
6033;SDS011;3045;43.226;27.858;2022-10-16T09:24:48;2.88;;;1.77;;
6033;SDS011;3045;43.226;27.858;2022-10-16T09:27:15;1.73;;;1.63;;
6033;SDS011;3045;43.226;27.858;2022-10-16T09:29:42;1.90;;;1.80;;
6033;SDS011;3045;43.226;27.858;2022-10-16T09:32:10;1.92;;;1.52;;
6033;SDS011;3045;43.226;27.858;2022-10-16T09:34:40;2.67;;;1.60;;
6033;SDS011;3045;43.226;27.858;2022-10-16T09:37:12;2.15;;;1.90;;
6033;SDS011;3045;43.226;27.858;2022-10-16T09:39:48;3.38;;;1.90;;
6033;SDS011;3045;43.226;27.858;2022-10-16T09:42:16;1.98;;;1.88;;
6033;SDS011;3045;43.226;27.858;2022-10-16T09:44:47;1.60;;;1.50;;
6033;SDS011;3045;43.226;27.858;2022-10-16T09:47:16;1.83;;;1.73;;
6033;SDS011;3045;43.226;27.858;2022-10-16T09:49:53;1.75;;;1.65;;
6033;SDS011;3045;43.226;27.858;2022-10-16T09:52:22;1.17;;;1.17;;
6033;SDS011;3045;43.226;27.858;2022-10-16T09:54:52;4.65;;;1.70;;
6033;SDS011;3045;43.226;27.858;2022-10-16T09:57:20;4.82;;;1.60;;
6033;SDS011;3045;43.226;27.858;2022-10-16T09:59:48;2.35;;;1.80;;
6033;SDS011;3045;43.226;27.858;2022-10-16T10:02:17;1.90;;;1.80;;
6033;SDS011;3045;43.226;27.858;2022-10-16T10:04:48;3.45;;;1.67;;
6033;SDS011;3045;43.226;27.858;2022-10-16T10:07:20;1.70;;;1.60;;
6033;SDS011;3045;43.226;27.858;2022-10-16T10:09:53;2.22;;;1.50;;
6033;SDS011;3045;43.226;27.858;2022-10-16T10:12:21;1.90;;;1.75;;
6033;SDS011;3045;43.226;27.858;2022-10-16T10:14:50;1.65;;;1.55;;
6033;SDS011;3045;43.226;27.858;2022-10-16T10:17:19;1.45;;;1.42;;
6033;SDS011;3045;43.226;27.858;2022-10-16T10:19:48;3.58;;;1.67;;
6033;SDS011;3045;43.226;27.858;2022-10-16T10:22:17;2.58;;;1.60;;
6033;SDS011;3045;43.226;27.858;2022-10-16T10:24:56;4.20;;;1.70;;
6033;SDS011;3045;43.226;27.858;2022-10-16T10:27:30;2.13;;;1.70;;
6033;SDS011;3045;43.226;27.858;2022-10-16T10:30:05;4.90;;;1.80;;
6033;SDS011;3045;43.226;27.858;2022-10-16T10:32:43;3.13;;;1.63;;
6033;SDS011;3045;43.226;27.858;2022-10-16T10:35:19;1.65;;;1.55;;
6033;SDS011;3045;43.226;27.858;2022-10-16T10:37:51;2.50;;;1.65;;
6033;SDS011;3045;43.226;27.858;2022-10-16T10:40:33;1.85;;;1.50;;
6033;SDS011;3045;43.226;27.858;2022-10-16T10:43:12;4.63;;;1.67;;
6033;SDS011;3045;43.226;27.858;2022-10-16T10:45:48;2.58;;;1.65;;
6033;SDS011;3045;43.226;27.858;2022-10-16T10:48:26;1.60;;;1.48;;
6033;SDS011;3045;43.226;27.858;2022-10-16T10:51:15;1.90;;;1.73;;
6033;SDS011;3045;43.226;27.858;2022-10-16T10:53:48;3.22;;;1.73;;
6033;SDS011;3045;43.226;27.858;2022-10-16T10:56:34;1.20;;;1.20;;
6033;SDS011;3045;43.226;27.858;2022-10-16T10:59:22;2.75;;;1.88;;
6033;SDS011;3045;43.226;27.858;2022-10-16T11:01:59;3.40;;;1.98;;
6033;SDS011;3045;43.226;27.858;2022-10-16T11:07:31;1.80;;;1.70;;
6033;SDS011;3045;43.226;27.858;2022-10-16T11:10:02;2.10;;;1.67;;
6033;SDS011;3045;43.226;27.858;2022-10-16T11:12:38;2.15;;;2.05;;
6033;SDS011;3045;43.226;27.858;2022-10-16T11:15:11;2.10;;;2.00;;
6033;SDS011;3045;43.226;27.858;2022-10-16T11:17:44;1.90;;;1.80;;
6033;SDS011;3045;43.226;27.858;2022-10-16T11:20:17;4.13;;;1.90;;
6033;SDS011;3045;43.226;27.858;2022-10-16T11:22:50;1.90;;;1.87;;
6033;SDS011;3045;43.226;27.858;2022-10-16T11:25:21;2.40;;;2.30;;
6033;SDS011;3045;43.226;27.858;2022-10-16T11:27:54;3.93;;;2.13;;
6033;SDS011;3045;43.226;27.858;2022-10-16T11:30:25;3.43;;;2.23;;
6033;SDS011;3045;43.226;27.858;2022-10-16T11:33:00;2.87;;;1.80;;
6033;SDS011;3045;43.226;27.858;2022-10-16T11:35:41;2.30;;;2.10;;
6033;SDS011;3045;43.226;27.858;2022-10-16T11:38:15;2.50;;;2.30;;
6033;SDS011;3045;43.226;27.858;2022-10-16T11:40:50;3.47;;;2.50;;
6033;SDS011;3045;43.226;27.858;2022-10-16T11:43:24;2.40;;;2.20;;
6033;SDS011;3045;43.226;27.858;2022-10-16T11:45:55;2.70;;;2.60;;
6033;SDS011;3045;43.226;27.858;2022-10-16T11:48:26;1.97;;;1.87;;
6033;SDS011;3045;43.226;27.858;2022-10-16T11:50:59;2.10;;;2.00;;
6033;SDS011;3045;43.226;27.858;2022-10-16T11:53:41;3.33;;;2.10;;
6033;SDS011;3045;43.226;27.858;2022-10-16T11:56:12;2.27;;;2.07;;
6033;SDS011;3045;43.226;27.858;2022-10-16T11:58:46;1.90;;;1.80;;
6033;SDS011;3045;43.226;27.858;2022-10-16T12:01:25;2.87;;;2.10;;
6033;SDS011;3045;43.226;27.858;2022-10-16T12:04:01;2.43;;;2.23;;
6033;SDS011;3045;43.226;27.858;2022-10-16T12:06:34;2.20;;;2.10;;
6033;SDS011;3045;43.226;27.858;2022-10-16T12:09:05;2.70;;;2.50;;
6033;SDS011;3045;43.226;27.858;2022-10-16T12:11:41;3.60;;;2.13;;
6033;SDS011;3045;43.226;27.858;2022-10-16T12:14:20;2.43;;;2.13;;
6033;SDS011;3045;43.226;27.858;2022-10-16T12:16:59;2.20;;;2.10;;
6033;SDS011;3045;43.226;27.858;2022-10-16T12:19:28;2.60;;;2.40;;
6033;SDS011;3045;43.226;27.858;2022-10-16T12:21:57;4.20;;;2.20;;
6033;SDS011;3045;43.226;27.858;2022-10-16T12:24:31;4.93;;;2.63;;
6033;SDS011;3045;43.226;27.858;2022-10-16T12:27:00;4.00;;;2.70;;
6033;SDS011;3045;43.226;27.858;2022-10-16T12:29:32;2.50;;;2.40;;
6033;SDS011;3045;43.226;27.858;2022-10-16T12:32:02;2.47;;;2.33;;
6033;SDS011;3045;43.226;27.858;2022-10-16T12:34:33;2.23;;;2.10;;
6033;SDS011;3045;43.226;27.858;2022-10-16T12:37:13;3.00;;;2.20;;
6033;SDS011;3045;43.226;27.858;2022-10-16T12:39:46;2.07;;;1.97;;
6033;SDS011;3045;43.226;27.858;2022-10-16T12:42:22;2.80;;;2.70;;
6033;SDS011;3045;43.226;27.858;2022-10-16T12:45:00;3.00;;;2.20;;
6033;SDS011;3045;43.226;27.858;2022-10-16T12:47:38;3.60;;;2.33;;
6033;SDS011;3045;43.226;27.858;2022-10-16T12:50:28;2.87;;;2.33;;
6033;SDS011;3045;43.226;27.858;2022-10-16T12:52:58;5.60;;;2.33;;
6033;SDS011;3045;43.226;27.858;2022-10-16T12:55:25;2.43;;;2.10;;
6033;SDS011;3045;43.226;27.858;2022-10-16T12:58:00;2.90;;;2.57;;
6033;SDS011;3045;43.226;27.858;2022-10-16T13:00:38;2.50;;;2.27;;
6033;SDS011;3045;43.226;27.858;2022-10-16T13:06:12;2.90;;;2.67;;
6033;SDS011;3045;43.226;27.858;2022-10-16T13:08:50;4.40;;;2.47;;
6033;SDS011;3045;43.226;27.858;2022-10-16T13:11:35;4.20;;;2.73;;
6033;SDS011;3045;43.226;27.858;2022-10-16T13:17:13;3.53;;;3.23;;
6033;SDS011;3045;43.226;27.858;2022-10-16T13:19:49;3.83;;;2.73;;
6033;SDS011;3045;43.226;27.858;2022-10-16T13:22:24;2.60;;;2.47;;
6033;SDS011;3045;43.226;27.858;2022-10-16T13:25:01;3.20;;;3.00;;
6033;SDS011;3045;43.226;27.858;2022-10-16T13:27:40;3.13;;;3.03;;
6033;SDS011;3045;43.226;27.858;2022-10-16T13:30:16;3.03;;;2.93;;
6033;SDS011;3045;43.226;27.858;2022-10-16T13:32:46;3.27;;;3.00;;
6033;SDS011;3045;43.226;27.858;2022-10-16T13:35:24;3.60;;;2.93;;
6033;SDS011;3045;43.226;27.858;2022-10-16T13:38:02;6.27;;;3.07;;
6033;SDS011;3045;43.226;27.858;2022-10-16T13:40:30;3.10;;;2.90;;
6033;SDS011;3045;43.226;27.858;2022-10-16T13:42:59;3.67;;;3.23;;
6033;SDS011;3045;43.226;27.858;2022-10-16T13:45:27;4.30;;;3.00;;
6033;SDS011;3045;43.226;27.858;2022-10-16T13:48:02;3.00;;;2.80;;
6033;SDS011;3045;43.226;27.858;2022-10-16T13:50:30;2.97;;;2.87;;
6033;SDS011;3045;43.226;27.858;2022-10-16T13:53:03;3.77;;;2.53;;
6033;SDS011;3045;43.226;27.858;2022-10-16T13:55:31;5.27;;;2.60;;
6033;SDS011;3045;43.226;27.858;2022-10-16T13:58:04;3.97;;;2.60;;
6033;SDS011;3045;43.226;27.858;2022-10-16T14:00:32;3.57;;;2.77;;
6033;SDS011;3045;43.226;27.858;2022-10-16T14:03:00;3.30;;;2.90;;
6033;SDS011;3045;43.226;27.858;2022-10-16T14:05:31;2.73;;;2.60;;
6033;SDS011;3045;43.226;27.858;2022-10-16T14:07:59;3.27;;;2.20;;
6033;SDS011;3045;43.226;27.858;2022-10-16T14:10:27;2.83;;;2.70;;
6033;SDS011;3045;43.226;27.858;2022-10-16T14:12:57;3.03;;;2.83;;
6033;SDS011;3045;43.226;27.858;2022-10-16T14:15:26;2.40;;;2.20;;
6033;SDS011;3045;43.226;27.858;2022-10-16T14:17:53;2.47;;;2.27;;
6033;SDS011;3045;43.226;27.858;2022-10-16T14:20:24;4.80;;;2.60;;
6033;SDS011;3045;43.226;27.858;2022-10-16T14:22:59;2.57;;;2.37;;
6033;SDS011;3045;43.226;27.858;2022-10-16T14:25:28;4.73;;;2.23;;
6033;SDS011;3045;43.226;27.858;2022-10-16T14:27:57;5.30;;;2.17;;
6033;SDS011;3045;43.226;27.858;2022-10-16T14:30:26;3.77;;;2.17;;
6033;SDS011;3045;43.226;27.858;2022-10-16T14:32:54;2.93;;;1.97;;
6033;SDS011;3045;43.226;27.858;2022-10-16T14:35:27;4.93;;;2.40;;
6033;SDS011;3045;43.226;27.858;2022-10-16T14:37:56;2.27;;;2.07;;
6033;SDS011;3045;43.226;27.858;2022-10-16T14:40:25;2.10;;;1.93;;
6033;SDS011;3045;43.226;27.858;2022-10-16T14:42:54;2.20;;;2.10;;
6033;SDS011;3045;43.226;27.858;2022-10-16T14:45:21;4.87;;;2.27;;
6033;SDS011;3045;43.226;27.858;2022-10-16T14:47:51;2.53;;;2.43;;
6033;SDS011;3045;43.226;27.858;2022-10-16T14:50:20;2.63;;;2.20;;
6033;SDS011;3045;43.226;27.858;2022-10-16T14:52:49;2.80;;;2.40;;
6033;SDS011;3045;43.226;27.858;2022-10-16T14:55:16;2.10;;;2.00;;
6033;SDS011;3045;43.226;27.858;2022-10-16T14:57:44;4.10;;;2.30;;
6033;SDS011;3045;43.226;27.858;2022-10-16T15:00:14;5.67;;;2.17;;
6033;SDS011;3045;43.226;27.858;2022-10-16T15:02:43;2.97;;;2.53;;
6033;SDS011;3045;43.226;27.858;2022-10-16T15:05:12;2.17;;;2.00;;
6033;SDS011;3045;43.226;27.858;2022-10-16T15:07:41;7.07;;;2.50;;
6033;SDS011;3045;43.226;27.858;2022-10-16T15:10:10;2.90;;;2.70;;
6033;SDS011;3045;43.226;27.858;2022-10-16T15:12:38;5.40;;;2.83;;
6033;SDS011;3045;43.226;27.858;2022-10-16T15:18:00;3.77;;;2.50;;
6033;SDS011;3045;43.226;27.858;2022-10-16T15:20:28;3.93;;;2.50;;
6033;SDS011;3045;43.226;27.858;2022-10-16T15:22:58;2.20;;;2.10;;
6033;SDS011;3045;43.226;27.858;2022-10-16T15:28:11;5.60;;;2.40;;
6033;SDS011;3045;43.226;27.858;2022-10-16T15:30:38;3.17;;;2.33;;
6033;SDS011;3045;43.226;27.858;2022-10-16T15:33:10;5.63;;;3.20;;